createdAt,value
2024-01-10T00:00:42.049Z,42.22
2024-01-10T00:03:08.717Z,45.20
2024-01-10T00:05:37.765Z,50.65
2024-01-10T00:08:04.473Z,46.90
2024-01-10T00:10:31.179Z,44.25
2024-01-10T00:12:57.695Z,60.97
2024-01-10T00:17:50.729Z,38.97
2024-01-10T00:20:17.500Z,64.78
2024-01-10T00:22:46.455Z,46.38
2024-01-10T00:25:13.046Z,41.08
2024-01-10T00:27:39.632Z,44.53
2024-01-10T00:30:07.224Z,49.78
2024-01-10T00:32:33.892Z,49.38
2024-01-10T00:35:00.520Z,44.00
2024-01-10T00:37:28.241Z,41.40
2024-01-10T00:39:54.830Z,40.35
2024-01-10T00:42:23.642Z,49.15
2024-01-10T00:44:50.316Z,44.17
2024-01-10T00:47:16.957Z,43.05
2024-01-10T00:49:43.709Z,46.55
2024-01-10T00:52:10.237Z,46.42
2024-01-10T00:54:36.834Z,51.92
2024-01-10T00:57:03.387Z,56.70
2024-01-10T00:59:30.033Z,52.45
2024-01-10T01:01:56.664Z,57.85
2024-01-10T01:04:29.298Z,47.50
2024-01-10T01:06:55.837Z,55.95
2024-01-10T01:09:22.371Z,44.72
2024-01-10T01:11:49.156Z,42.08
2024-01-10T01:14:16.046Z,52.63
2024-01-10T01:16:45.068Z,46.25
2024-01-10T01:19:12.097Z,52.55
2024-01-10T01:21:41.165Z,45.90
2024-01-10T01:24:07.675Z,40.72
2024-01-10T01:29:01.027Z,48.20
2024-01-10T01:31:29.881Z,36.95
2024-01-10T01:33:56.430Z,40.70
2024-01-10T01:36:25.732Z,44.42
2024-01-10T01:38:52.322Z,41.08
2024-01-10T01:41:22.053Z,44.28
2024-01-10T01:43:48.771Z,42.72
2024-01-10T01:46:15.442Z,41.08
2024-01-10T01:48:43.374Z,41.92
2024-01-10T01:51:11.468Z,40.80
2024-01-10T01:53:38.530Z,42.40
2024-01-10T01:56:09.198Z,48.05
2024-01-10T01:58:37.505Z,42.50
2024-01-10T02:01:04.969Z,46.17
2024-01-10T02:03:35.355Z,51.25
2024-01-10T02:06:05.751Z,47.35
2024-01-10T02:08:34.024Z,41.88
2024-01-10T02:11:02.201Z,35.30
2024-01-10T02:13:29.497Z,41.08
2024-01-10T02:15:56.095Z,44.42
2024-01-10T02:18:22.751Z,40.80
2024-01-10T02:20:49.525Z,47.38
2024-01-10T02:23:16.100Z,39.83
2024-01-10T02:25:43.456Z,38.70
2024-01-10T02:28:12.812Z,50.42
2024-01-10T02:30:39.398Z,51.83
2024-01-10T02:33:06.287Z,50.30
2024-01-10T02:35:34.239Z,42.35
2024-01-10T02:38:01.397Z,51.30
2024-01-10T02:40:28.076Z,57.78
2024-01-10T02:42:54.986Z,40.22
2024-01-10T02:45:21.723Z,43.78
2024-01-10T02:47:48.440Z,41.30
2024-01-10T02:50:15.274Z,50.03
2024-01-10T02:52:42.220Z,50.38
2024-01-10T02:55:08.891Z,59.78
2024-01-10T02:57:35.522Z,48.42
2024-01-10T03:00:02.367Z,53.38
2024-01-10T03:02:29.181Z,54.65
2024-01-10T03:04:55.996Z,58.70
2024-01-10T03:07:22.802Z,51.17
2024-01-10T03:09:49.316Z,45.53
2024-01-10T03:12:16.092Z,63.47
2024-01-10T03:14:42.928Z,47.72
2024-01-10T03:17:09.656Z,52.00
2024-01-10T03:19:38.491Z,50.65
2024-01-10T03:22:05.088Z,51.70
2024-01-10T03:24:31.803Z,64.10
2024-01-10T03:26:58.324Z,63.25
2024-01-10T03:29:24.923Z,64.20
2024-01-10T03:31:51.572Z,56.08
2024-01-10T03:34:19.306Z,53.13
2024-01-10T03:36:46.025Z,56.25
2024-01-10T03:39:12.527Z,55.72
2024-01-10T03:41:39.610Z,62.08
2024-01-10T03:44:06.661Z,62.95
2024-01-10T03:46:33.575Z,59.35
2024-01-10T03:49:00.238Z,48.33
2024-01-10T03:51:30.263Z,40.63
2024-01-10T03:53:56.800Z,51.53
2024-01-10T03:56:23.501Z,59.00
2024-01-10T03:58:52.252Z,53.40
2024-01-10T04:01:23.953Z,51.90
2024-01-10T04:03:50.991Z,56.30
2024-01-10T04:06:17.562Z,51.30
2024-01-10T04:08:47.035Z,55.95
2024-01-10T04:11:13.740Z,64.63
2024-01-10T04:13:40.404Z,72.97
2024-01-10T04:16:07.480Z,63.63
2024-01-10T04:18:34.174Z,48.80
2024-01-10T04:21:00.847Z,51.50
2024-01-10T04:23:28.743Z,44.17
2024-01-10T04:25:55.335Z,51.92
2024-01-10T04:28:21.839Z,46.70
2024-01-10T04:33:14.855Z,58.10
2024-01-10T04:35:41.424Z,34.13
2024-01-10T04:38:07.960Z,51.28
2024-01-10T04:40:34.625Z,55.33
2024-01-10T04:43:01.139Z,48.83
2024-01-10T04:45:30.625Z,55.30
2024-01-10T04:47:57.246Z,60.92
2024-01-10T04:50:23.846Z,54.30
2024-01-10T04:52:50.695Z,57.08
2024-01-10T04:55:20.074Z,55.45
2024-01-10T04:57:46.573Z,49.22
2024-01-10T05:02:39.707Z,47.35
2024-01-10T05:05:07.028Z,47.08
2024-01-10T05:07:33.610Z,52.03
2024-01-10T05:12:29.442Z,37.30
2024-01-10T05:14:59.038Z,47.72
2024-01-10T05:17:33.059Z,54.28
2024-01-10T05:19:59.674Z,36.78
2024-01-10T05:22:28.910Z,42.33
2024-01-10T05:24:55.439Z,45.92
2024-01-10T05:27:22.140Z,48.78
2024-01-10T05:29:48.661Z,56.70
2024-01-10T05:34:41.681Z,43.80
2024-01-10T05:37:08.304Z,48.17
2024-01-10T05:39:34.821Z,49.45
2024-01-10T05:44:31.020Z,35.00
2024-01-10T05:47:00.741Z,47.03
2024-01-10T05:49:27.615Z,45.65
2024-01-10T05:51:54.166Z,45.78
2024-01-10T05:56:49.423Z,40.92
2024-01-10T05:59:17.945Z,57.83
2024-01-10T06:01:44.740Z,58.97
2024-01-10T06:04:11.338Z,45.83
2024-01-10T06:06:37.921Z,48.63
2024-01-10T06:09:04.664Z,46.72
2024-01-10T06:11:31.866Z,51.15
2024-01-10T06:13:58.926Z,52.80
2024-01-10T06:16:28.769Z,55.10
2024-01-10T06:18:55.456Z,48.60
2024-01-10T06:21:22.206Z,49.97
2024-01-10T06:23:48.783Z,46.88
2024-01-10T06:26:15.381Z,46.40
2024-01-10T06:28:42.489Z,35.72
2024-01-10T06:31:12.271Z,41.17
2024-01-10T06:33:39.487Z,51.92
2024-01-10T06:36:06.409Z,40.95
2024-01-10T06:38:33.187Z,47.67
2024-01-10T06:41:00.127Z,46.95
2024-01-10T06:43:26.868Z,58.63
2024-01-10T06:45:53.990Z,52.67
2024-01-10T06:48:20.644Z,53.70
2024-01-10T06:50:47.231Z,44.03
2024-01-10T06:53:13.812Z,55.75
2024-01-10T06:55:40.409Z,59.17
2024-01-10T06:58:07.042Z,48.08
2024-01-10T07:00:34.891Z,51.47
2024-01-10T07:03:04.960Z,43.75
2024-01-10T07:05:32.926Z,41.15
2024-01-10T07:08:00.293Z,49.90
2024-01-10T07:10:31.405Z,49.35
2024-01-10T07:12:58.573Z,55.80
2024-01-10T07:15:25.135Z,56.55
2024-01-10T07:17:53.042Z,50.08
2024-01-10T07:20:19.853Z,49.08
2024-01-10T07:22:50.332Z,59.03
2024-01-10T07:25:16.898Z,51.95
2024-01-10T07:30:14.811Z,35.28
2024-01-10T07:32:45.707Z,50.55
2024-01-10T07:35:13.878Z,57.92
2024-01-10T07:37:41.922Z,43.83
2024-01-10T07:40:12.266Z,54.33
2024-01-10T07:42:42.243Z,44.17
2024-01-10T07:45:09.527Z,44.17
2024-01-10T07:47:42.252Z,53.20
2024-01-10T07:50:10.372Z,46.88
2024-01-10T07:52:37.427Z,47.75
2024-01-10T07:55:07.637Z,49.45
2024-01-10T07:57:35.117Z,53.50
2024-01-10T08:00:01.799Z,45.80
2024-01-10T08:02:28.671Z,49.88
2024-01-10T08:04:57.300Z,51.40
2024-01-10T08:07:24.657Z,61.78
2024-01-10T08:09:51.241Z,54.08
2024-01-10T08:12:17.797Z,59.60
2024-01-10T08:17:13.688Z,38.35
2024-01-10T08:19:40.248Z,53.83
2024-01-10T08:22:08.996Z,44.47
2024-01-10T08:24:35.569Z,49.85
2024-01-10T08:27:02.105Z,58.80
2024-01-10T08:31:59.007Z,54.38
2024-01-10T08:34:28.060Z,51.50
2024-01-10T08:36:54.627Z,38.42
2024-01-10T08:41:49.517Z,50.78
2024-01-10T08:44:17.021Z,48.40
2024-01-10T08:46:43.769Z,51.70
2024-01-10T08:49:11.079Z,60.58
2024-01-10T08:51:37.680Z,49.38
2024-01-10T08:54:04.860Z,65.75
2024-01-10T08:56:33.838Z,50.65
2024-01-10T08:59:01.362Z,79.72
2024-01-10T09:01:28.941Z,54.92
2024-01-10T09:03:55.551Z,64.75
2024-01-10T09:06:22.274Z,76.65
2024-01-10T09:08:49.284Z,59.58
2024-01-10T09:11:16.952Z,62.95
2024-01-10T09:13:43.564Z,68.70
2024-01-10T09:16:11.069Z,52.65
2024-01-10T09:18:37.938Z,71.28
2024-01-10T09:21:05.554Z,71.03
2024-01-10T09:23:32.133Z,73.90
2024-01-10T09:25:58.681Z,66.55
2024-01-10T09:28:25.192Z,67.55
2024-01-10T09:30:52.835Z,80.07
2024-01-10T09:33:19.710Z,68.28
2024-01-10T09:35:47.474Z,49.47
2024-01-10T09:38:14.018Z,68.38
2024-01-10T09:40:40.910Z,69.47
2024-01-10T09:43:08.701Z,60.47
2024-01-10T09:45:47.604Z,74.85
2024-01-10T09:50:42.608Z,61.35
2024-01-10T09:53:19.576Z,57.72
2024-01-10T09:55:47.111Z,65.68
2024-01-10T09:58:13.678Z,70.50
2024-01-10T10:00:40.841Z,69.60
2024-01-10T10:03:13.326Z,55.63
2024-01-10T10:05:43.144Z,66.18
2024-01-10T10:08:12.260Z,65.15
2024-01-10T10:10:45.872Z,68.00
2024-01-10T10:13:25.486Z,76.95
2024-01-10T10:16:01.648Z,71.60
2024-01-10T10:18:29.454Z,61.00
2024-01-10T10:21:14.412Z,63.17
2024-01-10T10:26:22.216Z,62.45
2024-01-10T10:28:50.009Z,58.50
2024-01-10T10:31:18.306Z,67.35
2024-01-10T10:33:46.169Z,59.67
2024-01-10T10:36:15.226Z,67.20
2024-01-10T10:38:42.007Z,62.45
2024-01-10T10:41:11.946Z,55.17
2024-01-10T10:43:40.499Z,60.85
2024-01-10T10:46:13.478Z,64.15
2024-01-10T10:48:40.291Z,59.63
2024-01-10T10:51:10.134Z,66.53
2024-01-10T10:53:38.880Z,62.25
2024-01-10T10:56:08.282Z,53.85
2024-01-10T10:58:37.333Z,54.13
2024-01-10T11:01:09.550Z,59.40
2024-01-10T11:03:41.779Z,57.28
2024-01-10T11:06:09.201Z,56.00
2024-01-10T11:08:50.798Z,53.63
2024-01-10T11:11:42.980Z,55.38
2024-01-10T11:14:26.755Z,41.88
2024-01-10T11:17:13.102Z,50.00
2024-01-10T11:20:05.738Z,51.60
2024-01-10T11:22:53.467Z,63.00
2024-01-10T11:25:20.559Z,62.45
2024-01-10T11:27:48.458Z,55.25
2024-01-10T11:30:36.843Z,55.92
2024-01-10T11:33:20.256Z,62.30
2024-01-10T11:36:13.024Z,56.60
2024-01-10T11:38:42.177Z,57.13
2024-01-10T11:41:11.869Z,51.97
2024-01-10T11:43:39.000Z,58.45
2024-01-10T11:46:07.412Z,50.95
2024-01-10T11:48:33.962Z,51.63
2024-01-10T11:51:01.866Z,50.97
2024-01-10T11:53:47.548Z,58.38
2024-01-10T11:56:26.029Z,56.03
2024-01-10T11:59:05.212Z,50.15
2024-01-10T12:01:32.762Z,46.22
2024-01-10T12:04:10.867Z,42.42
2024-01-10T12:06:41.785Z,46.75
2024-01-10T12:09:13.133Z,41.72
2024-01-10T12:11:41.542Z,37.72
2024-01-10T12:14:09.572Z,48.40
2024-01-10T12:16:36.638Z,37.25
2024-01-10T12:19:03.389Z,39.00
2024-01-10T12:21:31.261Z,39.80
2024-01-10T12:23:57.773Z,39.40
2024-01-10T12:26:24.338Z,47.85
2024-01-10T12:28:59.340Z,42.72
2024-01-10T12:31:29.317Z,41.72
2024-01-10T12:34:00.390Z,45.95
2024-01-10T12:36:27.024Z,43.13
2024-01-10T12:38:53.552Z,37.88
2024-01-10T12:41:20.948Z,41.35
2024-01-10T12:43:53.332Z,45.28
2024-01-10T12:46:19.897Z,42.30
2024-01-10T12:48:46.464Z,50.92
2024-01-10T12:51:14.188Z,42.78
2024-01-10T12:53:42.634Z,44.42
2024-01-10T12:56:13.113Z,39.85
2024-01-10T12:58:40.364Z,38.38
2024-01-10T13:01:06.903Z,40.80
2024-01-10T13:03:33.514Z,36.20
2024-01-10T13:05:59.992Z,42.20
2024-01-10T13:08:26.668Z,43.13
2024-01-10T13:10:53.692Z,44.10
2024-01-10T13:13:22.606Z,38.67
2024-01-10T13:15:50.286Z,35.58
2024-01-10T13:18:17.003Z,34.03
2024-01-10T13:20:44.539Z,39.63
2024-01-10T13:23:11.276Z,34.33
2024-01-10T13:25:38.358Z,39.33
2024-01-10T13:28:05.648Z,33.17
2024-01-10T13:30:32.198Z,36.72
2024-01-10T13:33:01.575Z,30.00
2024-01-10T13:35:29.463Z,33.95
2024-01-10T13:37:56.000Z,33.90
2024-01-10T13:40:25.369Z,34.80
2024-01-10T13:42:52.509Z,31.73
2024-01-10T13:45:19.186Z,30.65
2024-01-10T13:47:45.867Z,34.72
2024-01-10T13:50:12.486Z,31.10
2024-01-10T13:52:40.155Z,32.45
2024-01-10T13:55:06.699Z,36.03
2024-01-10T13:57:33.771Z,30.35
2024-01-10T14:00:00.935Z,30.40
2024-01-10T14:02:27.574Z,28.80
2024-01-10T14:05:00.739Z,31.73
2024-01-10T14:07:27.444Z,45.50
2024-01-10T14:09:56.704Z,29.88
2024-01-10T14:12:24.090Z,32.70
2024-01-10T14:14:51.693Z,33.95
2024-01-10T14:17:18.343Z,37.15
2024-01-10T14:19:46.157Z,34.35
2024-01-10T14:22:21.696Z,33.67
2024-01-10T14:24:56.216Z,29.30
2024-01-10T14:27:23.430Z,33.80
2024-01-10T14:29:49.938Z,33.95
2024-01-10T14:32:18.191Z,30.45
2024-01-10T14:34:46.309Z,31.23
2024-01-10T14:37:13.282Z,32.20
2024-01-10T14:39:39.983Z,30.73
2024-01-10T14:42:08.333Z,30.63
2024-01-10T14:44:35.556Z,29.73
2024-01-10T14:47:09.721Z,30.65
2024-01-10T14:49:37.854Z,32.22
2024-01-10T14:52:04.649Z,33.45
2024-01-10T14:54:31.641Z,33.13
2024-01-10T14:56:58.171Z,32.25
2024-01-10T14:59:36.552Z,33.35
2024-01-10T15:02:09.011Z,33.65
2024-01-10T15:04:39.904Z,34.60
2024-01-10T15:07:09.218Z,34.67
2024-01-10T15:09:39.023Z,34.63
2024-01-10T15:12:10.024Z,41.03
2024-01-10T15:14:38.599Z,30.65
2024-01-10T15:17:09.106Z,29.20
2024-01-10T15:19:36.842Z,34.25
2024-01-10T15:22:03.934Z,30.58
2024-01-10T15:24:31.189Z,32.97
2024-01-10T15:27:02.120Z,39.70
2024-01-10T15:29:30.340Z,30.50
2024-01-10T15:31:57.327Z,31.95
2024-01-10T15:34:25.986Z,31.48
2024-01-10T15:36:52.751Z,33.08
2024-01-10T15:39:21.109Z,31.50
2024-01-10T15:41:49.023Z,35.22
2024-01-10T15:44:16.128Z,34.38
2024-01-10T15:46:42.673Z,40.38
2024-01-10T15:49:09.927Z,30.13
2024-01-10T15:51:37.105Z,39.30
2024-01-10T15:54:03.929Z,32.20
2024-01-10T15:56:31.462Z,34.17
2024-01-10T15:58:58.293Z,38.05
2024-01-10T16:01:24.832Z,36.22
2024-01-10T16:03:51.455Z,33.88
2024-01-10T16:06:18.536Z,33.28
2024-01-10T16:08:45.140Z,34.55
2024-01-10T16:11:11.726Z,30.27
2024-01-10T16:13:38.268Z,27.05
2024-01-10T16:16:09.777Z,30.42
2024-01-10T16:18:38.157Z,34.50
2024-01-10T16:21:07.706Z,36.10
2024-01-10T16:23:34.197Z,27.33
2024-01-10T16:26:00.819Z,31.40
2024-01-10T16:28:29.666Z,38.90
2024-01-10T16:30:56.871Z,33.00
2024-01-10T16:33:26.639Z,31.58
2024-01-10T16:35:53.133Z,33.03
2024-01-10T16:38:19.737Z,26.45
2024-01-10T16:40:46.344Z,33.30
2024-01-10T16:43:12.900Z,37.63
2024-01-10T16:45:39.435Z,37.65
2024-01-10T16:48:08.892Z,39.03
2024-01-10T16:50:36.318Z,35.05
2024-01-10T16:53:04.500Z,37.88
2024-01-10T16:55:31.383Z,39.53
2024-01-10T16:57:57.922Z,33.38
2024-01-10T17:00:25.753Z,37.80
2024-01-10T17:02:52.725Z,36.40
2024-01-10T17:05:20.456Z,34.92
2024-01-10T17:07:47.146Z,40.85
2024-01-10T17:10:13.780Z,37.42
2024-01-10T17:12:40.280Z,38.28
2024-01-10T17:15:07.629Z,37.60
2024-01-10T17:17:34.283Z,37.28
2024-01-10T17:20:01.150Z,37.78
2024-01-10T17:22:29.568Z,27.77
2024-01-10T17:24:56.977Z,40.30
2024-01-10T17:27:23.585Z,33.35
2024-01-10T17:29:52.264Z,40.63
2024-01-10T17:32:18.837Z,39.25
2024-01-10T17:34:45.374Z,44.30
2024-01-10T17:37:14.366Z,44.85
2024-01-10T17:39:41.685Z,44.10
2024-01-10T17:42:08.170Z,48.83
2024-01-10T17:44:38.454Z,38.00
2024-01-10T17:47:06.362Z,40.67
2024-01-10T17:49:33.668Z,39.97
2024-01-10T17:52:00.578Z,35.45
2024-01-10T17:54:27.141Z,46.28
2024-01-10T17:56:53.660Z,39.15
2024-01-10T17:59:20.256Z,44.08
2024-01-10T18:01:46.796Z,45.45
2024-01-10T18:04:14.986Z,49.55
2024-01-10T18:06:42.455Z,48.22
2024-01-10T18:09:08.990Z,54.80
2024-01-10T18:11:36.540Z,46.03
2024-01-10T18:14:03.178Z,44.72
2024-01-10T18:16:29.830Z,43.53
2024-01-10T18:18:56.398Z,44.25
2024-01-10T18:21:24.412Z,44.20
2024-01-10T18:23:51.028Z,42.65
2024-01-10T18:26:17.586Z,41.65
2024-01-10T18:28:44.100Z,45.03
2024-01-10T18:31:10.566Z,43.28
2024-01-10T18:33:37.266Z,45.60
2024-01-10T18:36:05.351Z,41.60
2024-01-10T18:38:32.312Z,42.67
2024-01-10T18:40:58.903Z,43.15
2024-01-10T18:43:25.475Z,42.60
2024-01-10T18:45:52.258Z,42.08
2024-01-10T18:48:21.180Z,46.47
2024-01-10T18:50:47.812Z,40.90
2024-01-10T18:53:16.502Z,37.65
2024-01-10T18:55:43.079Z,47.63
2024-01-10T18:58:11.610Z,49.58
2024-01-10T19:00:39.082Z,39.97
2024-01-10T19:03:06.085Z,52.60
2024-01-10T19:05:32.900Z,45.30
2024-01-10T19:07:59.997Z,49.60
2024-01-10T19:10:26.556Z,48.90
2024-01-10T19:12:53.053Z,45.50
2024-01-10T19:15:19.617Z,50.90
2024-01-10T19:17:46.243Z,51.88
2024-01-10T19:20:15.178Z,41.30
2024-01-10T19:22:41.686Z,47.83
2024-01-10T19:25:09.190Z,46.30
2024-01-10T19:27:36.668Z,47.95
2024-01-10T19:30:06.922Z,40.38
2024-01-10T19:32:35.269Z,41.88
2024-01-10T19:35:04.804Z,40.22
2024-01-10T19:37:31.418Z,45.95
2024-01-10T19:39:59.162Z,42.88
2024-01-10T19:42:27.271Z,38.17
2024-01-10T19:44:55.002Z,48.03
2024-01-10T19:47:23.356Z,45.03
2024-01-10T19:49:50.402Z,44.17
2024-01-10T19:52:17.534Z,42.83
2024-01-10T19:54:44.051Z,40.30
2024-01-10T19:57:10.531Z,48.85
2024-01-10T19:59:37.222Z,50.20
2024-01-10T20:02:08.886Z,47.05
2024-01-10T20:04:35.437Z,47.22
2024-01-10T20:07:01.939Z,41.70
2024-01-10T20:09:28.825Z,49.47
2024-01-10T20:11:55.392Z,47.28
2024-01-10T20:14:23.402Z,45.45
2024-01-10T20:16:50.316Z,58.85
2024-01-10T20:19:17.106Z,57.78
2024-01-10T20:21:43.673Z,43.28
2024-01-10T20:24:10.559Z,54.83
2024-01-10T20:26:38.034Z,54.72
2024-01-10T20:29:04.690Z,56.45
2024-01-10T20:31:33.188Z,49.80
2024-01-10T20:34:04.085Z,63.05
2024-01-10T20:36:30.878Z,58.53
2024-01-10T20:38:57.475Z,56.45
2024-01-10T20:41:24.028Z,63.88
2024-01-10T20:43:50.560Z,56.70
2024-01-10T20:46:17.579Z,56.85
2024-01-10T20:48:44.160Z,64.43
2024-01-10T20:51:10.801Z,62.38
2024-01-10T20:53:37.528Z,64.70
2024-01-10T20:56:04.269Z,56.13
2024-01-10T20:58:30.824Z,51.78
2024-01-10T21:00:57.434Z,50.67
2024-01-10T21:03:26.573Z,47.53
2024-01-10T21:05:53.395Z,43.00
2024-01-10T21:08:20.481Z,49.30
2024-01-10T21:10:49.929Z,51.95
2024-01-10T21:13:16.665Z,58.40
2024-01-10T21:15:43.617Z,51.25
2024-01-10T21:18:10.778Z,51.53
2024-01-10T21:20:37.447Z,56.90
2024-01-10T21:23:04.059Z,48.90
2024-01-10T21:25:30.875Z,54.00
2024-01-10T21:27:57.335Z,51.15
2024-01-10T21:30:24.197Z,48.70
2024-01-10T21:32:50.885Z,59.22
2024-01-10T21:35:17.474Z,47.28
2024-01-10T21:37:45.616Z,50.33
2024-01-10T21:40:13.573Z,46.25
2024-01-10T21:42:40.377Z,53.45
2024-01-10T21:45:07.069Z,49.08
2024-01-10T21:47:33.997Z,48.55
2024-01-10T21:50:00.889Z,55.55
2024-01-10T21:52:28.092Z,47.00
2024-01-10T21:54:55.176Z,64.40
2024-01-10T21:57:24.091Z,43.40
2024-01-10T21:59:51.200Z,64.63
2024-01-10T22:02:17.713Z,50.75
2024-01-10T22:04:47.174Z,56.53
2024-01-10T22:07:13.868Z,49.15
2024-01-10T22:09:40.462Z,50.28
2024-01-10T22:12:07.496Z,62.50
2024-01-10T22:14:34.034Z,46.17
2024-01-10T22:17:00.577Z,52.35
2024-01-10T22:19:27.106Z,58.75
2024-01-10T22:21:54.190Z,65.28
2024-01-10T22:24:20.732Z,48.55
2024-01-10T22:26:48.931Z,56.60
2024-01-10T22:29:15.485Z,53.92
2024-01-10T22:31:42.048Z,51.15
2024-01-10T22:34:09.068Z,46.03
2024-01-10T22:36:35.605Z,44.03
2024-01-10T22:39:02.167Z,56.97
2024-01-10T22:41:28.697Z,45.08
2024-01-10T22:43:55.318Z,46.17
2024-01-10T22:46:21.873Z,51.58
2024-01-10T22:48:48.469Z,49.63
2024-01-10T22:51:15.004Z,50.67
2024-01-10T22:53:41.601Z,44.38
2024-01-10T22:56:08.407Z,32.00
2024-01-10T22:58:34.935Z,35.80
2024-01-10T23:01:01.677Z,47.75
2024-01-10T23:03:32.199Z,42.63
2024-01-10T23:05:59.161Z,50.15
2024-01-10T23:08:25.763Z,49.90
2024-01-10T23:10:52.426Z,48.00
2024-01-10T23:13:18.953Z,40.75
2024-01-10T23:15:45.437Z,36.75
2024-01-10T23:18:12.432Z,48.47
2024-01-10T23:20:39.535Z,34.33
2024-01-10T23:23:07.116Z,37.63
2024-01-10T23:25:33.700Z,43.88
2024-01-10T23:28:00.224Z,34.95
2024-01-10T23:30:26.842Z,33.90
2024-01-10T23:32:53.436Z,35.88
2024-01-10T23:35:26.320Z,53.47
2024-01-10T23:38:01.711Z,43.42
2024-01-10T23:40:28.373Z,71.22
2024-01-10T23:42:56.340Z,45.80
2024-01-10T23:45:24.304Z,34.90
2024-01-10T23:47:50.860Z,63.38
2024-01-10T23:50:17.587Z,23.65
2024-01-10T23:52:44.129Z,35.22
2024-01-10T23:55:10.930Z,31.65
2024-01-10T23:57:37.783Z,20.73
